Farmington, Delaware
Current Conditions -  °F | °C
As of 1:54 PM on Sunday 23 Nov 2014 (Local Time) from KGED Reporting Station
Clear Clear  
Wind Chill: 60°   Ceiling: Unl
Heat Index: 60°   Visibility: 10mi
Dew Point: 46°   Wind: 12mph
Humidity: 60%   Direction: 200°SSW
Pressure: 30.17"   Gusts: NA
Location:  38.87°N, 75.58°W
Report Text: KGED 231854Z AUTO 20010KT 10SM CLR 16/08 A3017 RMK AO2 SLP216 T01560078
Loading
Personal Weather Stations






























Interactive Weather Map New forecast layout! Learn more

10-Day Weather Forecast

Advertisements
Track Severe Weather on mobile